createdAt,value
2023-06-18T00:01:49.211Z,99569.98
2023-06-18T00:04:14.378Z,99563.23
2023-06-18T00:05:23.511Z,99574.38
2023-06-18T00:07:47.926Z,99572.51
2023-06-18T00:10:11.577Z,99577.55
2023-06-18T00:12:35.896Z,99572.49
2023-06-18T00:13:44.986Z,99568.89
2023-06-18T00:16:11.154Z,99570.17
2023-06-18T00:17:20.452Z,99570.55
2023-06-18T00:18:29.528Z,99571.17
2023-06-18T00:20:56.770Z,99573.57
2023-06-18T00:23:21.426Z,99560.05
2023-06-18T00:24:30.755Z,99575.59
2023-06-18T00:25:39.533Z,99575.15
2023-06-18T00:26:48.722Z,99574.49
2023-06-18T00:29:16.098Z,99571.77
2023-06-18T00:30:25.405Z,99574.70
2023-06-18T00:31:36.599Z,99578.31
2023-06-18T00:32:46.479Z,99573.45
2023-06-18T00:33:57.300Z,99570.30
2023-06-18T00:36:26.077Z,99564.20
2023-06-18T00:38:52.976Z,99567.55
2023-06-18T00:41:17.968Z,99562.69
2023-06-18T00:43:44.392Z,99561.85
2023-06-18T00:46:13.107Z,99557.41
2023-06-18T00:48:44.441Z,99558.48
2023-06-18T00:51:11.939Z,99554.92
2023-06-18T00:53:39.534Z,99558.95
2023-06-18T00:54:50.130Z,99561.88
2023-06-18T00:57:18.632Z,99560.89
2023-06-18T00:59:43.285Z,99562.36
2023-06-18T01:02:10.937Z,99564.44
2023-06-18T01:04:40.038Z,99568.22
2023-06-18T01:05:53.500Z,99577.45
2023-06-18T01:07:05.207Z,99571.12
2023-06-18T01:08:16.220Z,99584.22
2023-06-18T01:10:43.193Z,99576.38
2023-06-18T01:13:10.269Z,99567.10
2023-06-18T01:15:40.299Z,99572.17
2023-06-18T01:18:11.923Z,99570.08
2023-06-18T01:19:48.658Z,99573.19
2023-06-18T01:22:46.860Z,99567.13
2023-06-18T01:25:38.806Z,99574.05
2023-06-18T01:28:08.573Z,99582.25
2023-06-18T01:29:18.729Z,99585.82
2023-06-18T01:31:45.752Z,99578.88
2023-06-18T01:32:58.070Z,99585.16
2023-06-18T01:35:24.218Z,99579.33
2023-06-18T01:38:34.574Z,99577.42
2023-06-18T01:41:22.220Z,99584.75
2023-06-18T01:45:28.317Z,99583.39
2023-06-18T01:47:57.469Z,99584.50
2023-06-18T01:49:09.206Z,99590.36
2023-06-18T01:50:23.445Z,99585.09
2023-06-18T01:51:36.311Z,99585.33
2023-06-18T01:52:48.503Z,99587.00
2023-06-18T01:54:01.794Z,99586.62
2023-06-18T01:55:13.384Z,99584.30
2023-06-18T01:57:39.240Z,99584.16
2023-06-18T02:00:06.097Z,99587.07
2023-06-18T02:02:34.058Z,99589.36
2023-06-18T02:03:43.897Z,99596.46
2023-06-18T02:04:53.771Z,99581.89
2023-06-18T02:06:02.914Z,99586.96
2023-06-18T02:07:14.883Z,99586.38
2023-06-18T02:09:43.691Z,99591.09
2023-06-18T02:10:53.604Z,99588.98
2023-06-18T02:13:21.540Z,99583.73
2023-06-18T02:14:32.048Z,99587.52
2023-06-18T02:17:00.361Z,99589.25
2023-06-18T02:19:26.820Z,99593.91
2023-06-18T02:20:37.580Z,99593.42
2023-06-18T02:23:02.403Z,99595.36
2023-06-18T02:25:30.353Z,99593.45
2023-06-18T02:26:40.968Z,99595.30
2023-06-18T02:27:54.700Z,99592.11
2023-06-18T02:29:03.745Z,99597.80
2023-06-18T02:30:14.472Z,99599.25
2023-06-18T02:32:40.907Z,99605.23
2023-06-18T02:33:51.328Z,99604.73
2023-06-18T02:36:15.373Z,99602.82
2023-06-18T02:37:25.521Z,99605.65
2023-06-18T02:38:35.231Z,99611.62
2023-06-18T02:40:59.698Z,99606.81
2023-06-18T02:42:10.764Z,99606.77
2023-06-18T02:44:34.517Z,99603.69
2023-06-18T02:47:01.990Z,99622.01
2023-06-18T02:48:11.706Z,99618.14
2023-06-18T02:50:38.362Z,99617.11
2023-06-18T02:51:49.350Z,99628.90
2023-06-18T02:54:14.344Z,99619.23
2023-06-18T02:55:25.317Z,99620.59
2023-06-18T02:57:51.194Z,99620.19
2023-06-18T03:00:18.023Z,99624.84
2023-06-18T03:02:44.832Z,99629.28
2023-06-18T03:05:14.381Z,99624.38
2023-06-18T03:07:40.614Z,99622.58
2023-06-18T03:10:07.134Z,99613.58
2023-06-18T03:11:17.184Z,99621.97
2023-06-18T03:13:43.034Z,99622.05
2023-06-18T03:14:52.951Z,99632.31
2023-06-18T03:17:22.618Z,99624.55
2023-06-18T03:18:32.114Z,99625.88
2023-06-18T03:19:41.401Z,99630.31
2023-06-18T03:22:07.135Z,99625.17
2023-06-18T03:23:17.918Z,99627.45
2023-06-18T03:25:44.788Z,99633.02
2023-06-18T03:26:57.799Z,99633.81
2023-06-18T03:29:23.405Z,99636.63
2023-06-18T03:30:33.317Z,99639.95
2023-06-18T03:32:59.426Z,99630.70
2023-06-18T03:35:25.783Z,99637.67
2023-06-18T03:36:43.035Z,99641.45
2023-06-18T03:39:13.013Z,99634.67
2023-06-18T03:41:39.623Z,99636.39
2023-06-18T03:42:48.959Z,99634.47
2023-06-18T03:45:15.888Z,99637.05
2023-06-18T03:48:00.674Z,99641.95
2023-06-18T03:50:26.257Z,99640.92
2023-06-18T03:52:52.198Z,99635.70
2023-06-18T03:55:16.072Z,99642.27
2023-06-18T03:57:43.284Z,99637.83
2023-06-18T03:58:54.280Z,99642.23
2023-06-18T04:00:06.398Z,99637.80
2023-06-18T04:01:18.481Z,99640.74
2023-06-18T04:03:45.536Z,99635.95
2023-06-18T04:06:10.934Z,99634.69
2023-06-18T04:08:55.267Z,99646.74
2023-06-18T04:11:22.607Z,99640.36
2023-06-18T04:12:31.934Z,99648.55
2023-06-18T04:13:42.302Z,99643.91
2023-06-18T04:16:06.740Z,99642.27
2023-06-18T04:17:17.434Z,99654.66
2023-06-18T04:19:42.856Z,99647.78
2023-06-18T04:22:08.361Z,99649.22
2023-06-18T04:24:41.492Z,99654.05
2023-06-18T04:27:10.560Z,99645.42
2023-06-18T04:29:37.363Z,99645.84
2023-06-18T04:32:01.260Z,99650.95
2023-06-18T04:34:25.527Z,99646.53
2023-06-18T04:36:50.039Z,99650.38
2023-06-18T04:39:16.403Z,99648.27
2023-06-18T04:41:43.654Z,99653.36
2023-06-18T04:44:11.158Z,99661.20
2023-06-18T04:46:35.386Z,99654.89
2023-06-18T04:47:45.698Z,99658.66
2023-06-18T04:48:55.028Z,99660.13
2023-06-18T04:50:09.628Z,99659.08
2023-06-18T04:52:36.324Z,99663.13
2023-06-18T04:55:01.531Z,99668.63
2023-06-18T04:56:11.661Z,99668.99
2023-06-18T04:57:23.815Z,99669.41
2023-06-18T04:59:50.275Z,99668.17
2023-06-18T05:02:17.499Z,99673.66
2023-06-18T05:03:26.386Z,99673.02
2023-06-18T05:04:36.217Z,99674.51
2023-06-18T05:07:01.435Z,99675.78
2023-06-18T05:09:31.777Z,99681.48
2023-06-18T05:10:42.775Z,99674.72
2023-06-18T05:11:54.095Z,99681.25
2023-06-18T05:13:04.568Z,99683.58
2023-06-18T05:15:30.683Z,99680.65
2023-06-18T05:16:42.243Z,99683.78
2023-06-18T05:17:51.208Z,99681.05
2023-06-18T05:20:17.183Z,99682.97
2023-06-18T05:22:44.584Z,99682.56
2023-06-18T05:25:12.286Z,99689.03
2023-06-18T05:27:37.943Z,99694.70
2023-06-18T05:30:04.052Z,99696.20
2023-06-18T05:31:13.700Z,99687.27
2023-06-18T05:33:38.930Z,99688.17
2023-06-18T05:34:50.070Z,99698.25
2023-06-18T05:37:15.639Z,99688.20
2023-06-18T05:39:41.554Z,99693.03
2023-06-18T05:42:08.733Z,99689.72
2023-06-18T05:44:34.860Z,99699.47
2023-06-18T05:47:00.541Z,99697.81
2023-06-18T05:49:28.448Z,99700.16
2023-06-18T05:51:54.502Z,99700.21
2023-06-18T05:54:22.747Z,99694.71
2023-06-18T05:55:31.885Z,99702.55
2023-06-18T05:57:57.293Z,99696.61
2023-06-18T05:59:07.288Z,99700.44
2023-06-18T06:01:43.071Z,99696.62
2023-06-18T06:04:06.976Z,99700.22
2023-06-18T06:05:16.172Z,99701.05
2023-06-18T06:06:26.359Z,99695.11
2023-06-18T06:08:53.215Z,99703.02
2023-06-18T06:11:17.075Z,99703.14
2023-06-18T06:12:25.876Z,99710.35
2023-06-18T06:14:51.619Z,99702.98
2023-06-18T06:16:01.392Z,99710.84
2023-06-18T06:18:25.702Z,99713.25
2023-06-18T06:20:49.659Z,99703.66
2023-06-18T06:23:14.512Z,99709.73
2023-06-18T06:24:23.783Z,99712.98
2023-06-18T06:25:40.448Z,99716.98
2023-06-18T06:26:49.542Z,99717.80
2023-06-18T06:29:15.493Z,99716.01
2023-06-18T06:31:39.476Z,99712.66
2023-06-18T06:34:04.517Z,99711.66
2023-06-18T06:36:29.491Z,99719.34
2023-06-18T06:38:54.148Z,99723.97
2023-06-18T06:41:20.888Z,99720.84
2023-06-18T06:43:48.553Z,99718.37
2023-06-18T06:46:22.126Z,99718.53
2023-06-18T06:48:52.683Z,99720.16
2023-06-18T06:52:05.146Z,99713.92
2023-06-18T06:54:30.323Z,99717.75
2023-06-18T06:55:39.551Z,99720.83
2023-06-18T06:56:51.435Z,99727.34
2023-06-18T06:59:16.034Z,99722.72
2023-06-18T07:00:25.745Z,99723.51
2023-06-18T07:01:35.554Z,99728.80
2023-06-18T07:04:01.983Z,99725.30
2023-06-18T07:06:27.370Z,99732.59
2023-06-18T07:07:38.152Z,99729.88
2023-06-18T07:10:02.923Z,99725.66
2023-06-18T07:11:13.076Z,99731.75
2023-06-18T07:13:37.157Z,99734.09
2023-06-18T07:16:01.972Z,99727.13
2023-06-18T07:18:27.848Z,99725.09
2023-06-18T07:20:52.046Z,99728.86
2023-06-18T07:23:17.545Z,99727.17
2023-06-18T07:25:43.201Z,99726.98
2023-06-18T07:28:08.305Z,99725.08
2023-06-18T07:30:32.402Z,99721.33
2023-06-18T07:31:41.443Z,99734.20
2023-06-18T07:34:06.306Z,99725.06
2023-06-18T07:36:30.907Z,99727.48
2023-06-18T07:37:48.517Z,99728.33
2023-06-18T07:40:13.792Z,99728.07
2023-06-18T07:42:40.382Z,99725.80
2023-06-18T07:43:49.441Z,99736.13
2023-06-18T07:46:14.916Z,99720.24
2023-06-18T07:47:25.444Z,99731.19
2023-06-18T07:49:51.005Z,99732.16
2023-06-18T07:52:16.723Z,99733.13
2023-06-18T07:54:42.119Z,99733.50
2023-06-18T07:57:06.920Z,99732.16
2023-06-18T07:59:32.138Z,99731.69
2023-06-18T08:02:04.306Z,99724.83
2023-06-18T08:04:30.378Z,99728.09
2023-06-18T08:06:55.087Z,99727.10
2023-06-18T08:09:20.631Z,99732.55
2023-06-18T08:10:35.215Z,99735.91
2023-06-18T08:13:01.201Z,99735.91
2023-06-18T08:14:11.960Z,99739.25
2023-06-18T08:16:37.717Z,99734.83
2023-06-18T08:19:03.038Z,99732.52
2023-06-18T08:21:28.456Z,99731.59
2023-06-18T08:23:53.977Z,99738.31
2023-06-18T08:26:21.843Z,99740.95
2023-06-18T08:27:30.539Z,99732.28
2023-06-18T08:29:54.692Z,99734.83
2023-06-18T08:31:04.596Z,99738.44
2023-06-18T08:33:29.440Z,99732.76
2023-06-18T08:35:56.184Z,99735.31
2023-06-18T08:38:21.309Z,99736.97
2023-06-18T08:40:59.035Z,99727.97
2023-06-18T08:43:26.446Z,99734.56
2023-06-18T08:45:56.457Z,99736.88
2023-06-18T08:48:31.777Z,99731.21
2023-06-18T08:49:42.593Z,99732.30
2023-06-18T08:50:57.054Z,99736.39
2023-06-18T08:53:28.982Z,99728.67
2023-06-18T08:55:54.784Z,99743.13
2023-06-18T09:00:01.796Z,99735.07
2023-06-18T09:02:30.862Z,99738.12
2023-06-18T09:04:59.418Z,99715.66
2023-06-18T09:07:26.077Z,99725.05
2023-06-18T09:08:37.484Z,99721.05
2023-06-18T09:11:05.034Z,99724.72
2023-06-18T09:13:29.911Z,99726.39
2023-06-18T09:14:39.647Z,99726.17
2023-06-18T09:15:48.720Z,99726.17
2023-06-18T09:18:14.098Z,99716.30
2023-06-18T09:20:40.191Z,99721.46
2023-06-18T09:23:09.620Z,99719.66
2023-06-18T09:25:40.103Z,99710.86
2023-06-18T09:28:08.628Z,99716.15
2023-06-18T09:30:32.941Z,99716.64
2023-06-18T09:34:50.234Z,99714.73
2023-06-18T09:37:28.955Z,99714.12
2023-06-18T09:40:00.898Z,99706.20
2023-06-18T09:41:14.364Z,99712.37
2023-06-18T09:42:30.487Z,99703.48
2023-06-18T09:43:42.014Z,99706.36
2023-06-18T09:44:51.422Z,99708.43
2023-06-18T09:47:18.350Z,99703.88
2023-06-18T09:49:50.768Z,99697.99
2023-06-18T09:52:17.586Z,99702.33
2023-06-18T09:53:26.675Z,99706.30
2023-06-18T09:56:11.722Z,99707.13
2023-06-18T09:57:22.113Z,99698.86
2023-06-18T09:58:33.501Z,99702.70
2023-06-18T09:59:45.415Z,99701.87
2023-06-18T10:02:25.582Z,99705.81
2023-06-18T10:03:34.932Z,99710.02
2023-06-18T10:04:45.570Z,99711.22
2023-06-18T10:07:18.219Z,99714.24
2023-06-18T10:09:48.208Z,99708.34
2023-06-18T10:10:57.505Z,99717.86
2023-06-18T10:13:30.385Z,99700.05
2023-06-18T10:14:41.219Z,99704.50
2023-06-18T10:16:00.300Z,99708.59
2023-06-18T10:17:26.948Z,99708.00
2023-06-18T10:20:01.626Z,99717.02
2023-06-18T10:22:32.519Z,99706.05
2023-06-18T10:25:08.119Z,99701.96
2023-06-18T10:27:35.885Z,99709.19
2023-06-18T10:28:47.939Z,99705.95
2023-06-18T10:31:16.914Z,99701.96
2023-06-18T10:32:27.843Z,99699.55
2023-06-18T10:33:37.739Z,99700.91
2023-06-18T10:36:03.441Z,99692.21
2023-06-18T10:38:30.076Z,99708.96
2023-06-18T10:41:14.486Z,99701.36
2023-06-18T10:43:41.666Z,99700.53
2023-06-18T10:46:14.874Z,99703.88
2023-06-18T10:47:26.546Z,99705.80
2023-06-18T10:48:36.874Z,99709.98
2023-06-18T10:50:11.786Z,99707.45
2023-06-18T10:52:42.155Z,99703.48
2023-06-18T10:55:15.354Z,99709.16
2023-06-18T10:56:24.279Z,99706.15
2023-06-18T10:58:53.770Z,99703.37
2023-06-18T11:00:19.837Z,99705.66
2023-06-18T11:02:52.252Z,99696.50
2023-06-18T11:05:49.873Z,99703.23
2023-06-18T11:08:34.916Z,99703.03
2023-06-18T11:09:58.955Z,99704.45
2023-06-18T11:11:15.297Z,99704.08
2023-06-18T11:13:53.424Z,99692.08
2023-06-18T11:16:25.293Z,99699.16
2023-06-18T11:18:53.547Z,99697.14
2023-06-18T11:20:05.379Z,99698.57
2023-06-18T11:21:22.470Z,99704.59
2023-06-18T11:23:50.514Z,99695.94
2023-06-18T11:25:01.463Z,99707.56
2023-06-18T11:27:38.420Z,99697.50
2023-06-18T11:30:03.695Z,99694.86
2023-06-18T11:32:29.312Z,99698.91
2023-06-18T11:34:55.473Z,99702.28
2023-06-18T11:36:13.717Z,99711.06
2023-06-18T11:37:28.785Z,99713.20
2023-06-18T11:39:58.979Z,99708.05
2023-06-18T11:41:08.907Z,99708.02
2023-06-18T11:45:24.261Z,99714.89
2023-06-18T11:46:39.140Z,99708.25
2023-06-18T11:47:51.410Z,99704.66
2023-06-18T11:50:36.473Z,99708.40
2023-06-18T11:51:45.373Z,99696.61
2023-06-18T11:54:12.105Z,99699.89
2023-06-18T11:55:22.004Z,99703.00
2023-06-18T11:56:31.220Z,99696.40
2023-06-18T11:58:59.784Z,99703.86
2023-06-18T12:01:31.718Z,99696.05
2023-06-18T12:02:42.020Z,99694.95
2023-06-18T12:03:51.862Z,99690.87
2023-06-18T12:05:05.301Z,99705.53
2023-06-18T12:06:16.289Z,99697.23
2023-06-18T12:08:46.307Z,99694.86
2023-06-18T12:09:59.659Z,99691.83
2023-06-18T12:12:50.903Z,99684.42
2023-06-18T12:15:28.326Z,99686.45
2023-06-18T12:18:07.916Z,99686.34
2023-06-18T12:19:20.511Z,99689.70
2023-06-18T12:20:32.304Z,99694.75
2023-06-18T12:21:42.787Z,99698.59
2023-06-18T12:24:08.350Z,99688.86
2023-06-18T12:26:33.895Z,99685.38
2023-06-18T12:27:45.585Z,99694.00
2023-06-18T12:30:14.520Z,99681.75
2023-06-18T12:31:25.891Z,99689.78
2023-06-18T12:33:52.797Z,99687.77
2023-06-18T12:36:31.837Z,99684.01
2023-06-18T12:37:45.781Z,99682.91
2023-06-18T12:40:24.671Z,99689.33
2023-06-18T12:42:52.315Z,99686.56
2023-06-18T12:44:02.281Z,99687.99
2023-06-18T12:46:28.206Z,99681.03
2023-06-18T12:47:43.926Z,99674.16
2023-06-18T12:48:55.235Z,99684.12
2023-06-18T12:50:04.945Z,99694.73
2023-06-18T12:51:14.007Z,99687.51
2023-06-18T12:52:27.090Z,99704.10
2023-06-18T12:54:51.469Z,99689.20
2023-06-18T12:57:48.968Z,99692.55
2023-06-18T12:59:00.360Z,99690.14
2023-06-18T13:00:17.270Z,99689.06
2023-06-18T13:01:26.458Z,99688.83
2023-06-18T13:02:36.190Z,99695.43
2023-06-18T13:05:02.077Z,99686.70
2023-06-18T13:07:30.110Z,99689.22
2023-06-18T13:08:39.691Z,99681.24
2023-06-18T13:11:05.353Z,99681.87
2023-06-18T13:13:33.119Z,99681.30
2023-06-18T13:15:58.384Z,99680.92
2023-06-18T13:18:26.424Z,99683.09
2023-06-18T13:20:57.802Z,99677.32
2023-06-18T13:22:07.900Z,99681.48
2023-06-18T13:24:33.099Z,99675.39
2023-06-18T13:25:43.565Z,99684.50
2023-06-18T13:26:52.183Z,99683.30
2023-06-18T13:29:16.156Z,99674.18
2023-06-18T13:30:25.310Z,99674.99
2023-06-18T13:31:34.221Z,99675.58
2023-06-18T13:32:43.989Z,99678.97
2023-06-18T13:33:53.747Z,99677.89
2023-06-18T13:35:04.119Z,99668.48
2023-06-18T13:37:29.030Z,99672.03
2023-06-18T13:40:02.126Z,99664.64
2023-06-18T13:42:25.988Z,99662.95
2023-06-18T13:44:51.404Z,99662.12
2023-06-18T13:47:16.972Z,99668.73
2023-06-18T13:49:41.805Z,99661.30
2023-06-18T13:52:08.546Z,99653.00
2023-06-18T13:54:35.079Z,99656.84
2023-06-18T13:56:59.710Z,99658.28
2023-06-18T13:59:23.874Z,99658.04
2023-06-18T14:01:49.255Z,99655.27
2023-06-18T14:04:15.621Z,99651.22
2023-06-18T14:06:40.690Z,99654.44
2023-06-18T14:09:06.552Z,99654.06
2023-06-18T14:11:31.400Z,99650.81
2023-06-18T14:13:57.652Z,99648.05
2023-06-18T14:16:24.195Z,99650.36
2023-06-18T14:18:49.051Z,99642.92
2023-06-18T14:21:14.454Z,99640.16
2023-06-18T14:23:45.525Z,99647.59
2023-06-18T14:26:15.906Z,99646.52
2023-06-18T14:28:41.825Z,99642.06
2023-06-18T14:31:07.885Z,99645.07
2023-06-18T14:32:18.533Z,99645.05
2023-06-18T14:33:27.933Z,99648.89
2023-06-18T14:35:52.060Z,99649.13
2023-06-18T14:38:15.807Z,99643.12
2023-06-18T14:40:40.260Z,99644.19
2023-06-18T14:43:06.882Z,99648.16
2023-06-18T14:45:31.606Z,99635.78
2023-06-18T14:46:41.541Z,99640.84
2023-06-18T14:49:06.866Z,99646.36
2023-06-18T14:51:32.128Z,99644.70
2023-06-18T14:53:59.580Z,99641.06
2023-06-18T14:56:30.071Z,99633.88
2023-06-18T14:58:54.943Z,99628.80
2023-06-18T15:00:05.216Z,99639.39
2023-06-18T15:02:30.456Z,99636.16
2023-06-18T15:04:57.236Z,99628.47
2023-06-18T15:07:21.212Z,99621.25
2023-06-18T15:09:46.196Z,99619.55
2023-06-18T15:12:12.526Z,99633.14
2023-06-18T15:14:36.755Z,99629.91
2023-06-18T15:15:46.044Z,99632.90
2023-06-18T15:18:10.135Z,99632.05
2023-06-18T15:19:19.945Z,99633.48
2023-06-18T15:21:52.364Z,99630.13
2023-06-18T15:24:18.355Z,99635.31
2023-06-18T15:26:42.195Z,99632.78
2023-06-18T15:29:08.132Z,99629.16
2023-06-18T15:31:35.164Z,99628.33
2023-06-18T15:33:59.790Z,99639.26
2023-06-18T15:35:08.735Z,99639.52
2023-06-18T15:37:33.554Z,99639.52
2023-06-18T15:40:00.188Z,99640.10
2023-06-18T15:41:10.253Z,99645.00
2023-06-18T15:42:19.562Z,99642.07
2023-06-18T15:44:47.796Z,99635.02
2023-06-18T15:45:57.761Z,99640.47
2023-06-18T15:48:24.698Z,99643.90
2023-06-18T15:50:50.071Z,99635.16
2023-06-18T15:53:19.806Z,99633.61
2023-06-18T15:55:47.749Z,99634.20
2023-06-18T15:58:13.429Z,99643.08
2023-06-18T16:00:37.485Z,99644.08
2023-06-18T16:03:05.005Z,99637.82
2023-06-18T16:05:29.952Z,99645.63
2023-06-18T16:07:54.854Z,99645.39
2023-06-18T16:10:20.669Z,99651.41
2023-06-18T16:12:46.147Z,99653.58
2023-06-18T16:15:17.629Z,99651.51
2023-06-18T16:17:45.412Z,99650.44
2023-06-18T16:20:11.604Z,99654.75
2023-06-18T16:22:37.614Z,99652.71
2023-06-18T16:25:10.676Z,99662.08
2023-06-18T16:26:24.615Z,99663.94
2023-06-18T16:28:51.308Z,99657.27
2023-06-18T16:30:00.429Z,99661.03
2023-06-18T16:32:25.363Z,99665.42
2023-06-18T16:33:34.939Z,99665.83
2023-06-18T16:35:58.691Z,99663.80
2023-06-18T16:37:08.160Z,99672.30
2023-06-18T16:39:35.479Z,99662.47
2023-06-18T16:42:00.201Z,99670.61
2023-06-18T16:43:11.126Z,99670.20
2023-06-18T16:44:20.170Z,99664.05
2023-06-18T16:46:44.577Z,99672.25
2023-06-18T16:49:22.745Z,99665.98
2023-06-18T16:51:49.846Z,99680.85
2023-06-18T16:54:14.810Z,99682.31
2023-06-18T16:56:40.797Z,99682.91
2023-06-18T16:59:08.311Z,99680.53
2023-06-18T17:01:34.410Z,99683.92
2023-06-18T17:02:43.356Z,99689.85
2023-06-18T17:05:09.817Z,99678.01
2023-06-18T17:07:34.198Z,99680.53
2023-06-18T17:08:52.958Z,99688.78
2023-06-18T17:11:20.756Z,99686.89
2023-06-18T17:13:45.484Z,99688.23
2023-06-18T17:14:54.764Z,99689.22
2023-06-18T17:17:21.685Z,99688.67
2023-06-18T17:19:45.447Z,99681.24
2023-06-18T17:22:12.985Z,99683.38
2023-06-18T17:24:36.692Z,99680.85
2023-06-18T17:25:46.030Z,99689.70
2023-06-18T17:28:11.197Z,99680.02
2023-06-18T17:30:36.127Z,99691.08
2023-06-18T17:33:01.695Z,99693.84
2023-06-18T17:35:26.335Z,99696.83
2023-06-18T17:37:58.257Z,99688.98
2023-06-18T17:40:23.993Z,99693.91
2023-06-18T17:42:49.810Z,99686.94
2023-06-18T17:43:59.183Z,99683.23
2023-06-18T17:46:24.085Z,99691.23
2023-06-18T17:47:33.953Z,99692.82
2023-06-18T17:50:04.687Z,99691.08
2023-06-18T17:51:14.100Z,99694.83
2023-06-18T17:53:46.198Z,99698.34
2023-06-18T17:56:09.976Z,99695.22
2023-06-18T17:57:19.064Z,99701.72
2023-06-18T17:58:29.029Z,99698.36
2023-06-18T18:00:57.265Z,99698.36
2023-06-18T18:02:15.223Z,99711.70
2023-06-18T18:04:59.139Z,99714.06
2023-06-18T18:07:23.863Z,99713.75
2023-06-18T18:09:47.510Z,99720.80
2023-06-18T18:12:11.828Z,99717.03
2023-06-18T18:14:38.827Z,99729.95
2023-06-18T18:17:02.949Z,99730.16
2023-06-18T18:19:27.842Z,99741.19
2023-06-18T18:21:55.431Z,99735.48
2023-06-18T18:24:20.451Z,99737.81
2023-06-18T18:26:48.685Z,99737.81
2023-06-18T18:29:11.551Z,99741.40
2023-06-18T18:30:22.885Z,99743.80
2023-06-18T18:32:47.603Z,99743.92
2023-06-18T18:35:11.831Z,99746.91
2023-06-18T18:37:37.065Z,99745.05
2023-06-18T18:40:01.911Z,99749.70
2023-06-18T18:42:28.603Z,99744.00
2023-06-18T18:44:52.511Z,99746.39
2023-06-18T18:46:01.704Z,99749.02
2023-06-18T18:47:10.897Z,99747.34
2023-06-18T18:48:23.071Z,99752.00
2023-06-18T18:49:33.139Z,99750.11
2023-06-18T18:50:48.162Z,99754.76
2023-06-18T18:51:56.864Z,99752.00
2023-06-18T18:54:20.545Z,99751.72
2023-06-18T18:56:46.515Z,99750.26
2023-06-18T18:59:11.604Z,99753.24
2023-06-18T19:01:44.644Z,99751.55
2023-06-18T19:04:17.384Z,99761.97
2023-06-18T19:06:42.523Z,99753.47
2023-06-18T19:09:07.326Z,99758.98
2023-06-18T19:11:33.823Z,99758.98
2023-06-18T19:14:00.234Z,99763.03
2023-06-18T19:16:26.778Z,99757.74
2023-06-18T19:18:51.184Z,99758.80
2023-06-18T19:21:15.395Z,99744.19
2023-06-18T19:23:41.365Z,99754.38
2023-06-18T19:26:04.988Z,99746.48
2023-06-18T19:28:32.046Z,99750.16
2023-06-18T19:30:56.102Z,99748.45
2023-06-18T19:33:22.275Z,99746.16
2023-06-18T19:35:47.218Z,99747.27
2023-06-18T19:38:12.997Z,99740.73
2023-06-18T19:40:37.107Z,99735.22
2023-06-18T19:43:04.395Z,99736.27
2023-06-18T19:45:29.558Z,99741.59
2023-06-18T19:47:56.377Z,99743.98
2023-06-18T19:50:22.187Z,99752.25
2023-06-18T19:52:46.870Z,99754.17
2023-06-18T19:55:12.557Z,99763.20
2023-06-18T19:56:24.808Z,99767.73
2023-06-18T19:57:34.959Z,99765.41
2023-06-18T19:59:59.543Z,99761.15
2023-06-18T20:02:24.227Z,99758.17
2023-06-18T20:04:50.626Z,99762.65
2023-06-18T20:06:01.085Z,99767.13
2023-06-18T20:08:26.359Z,99769.21
2023-06-18T20:10:52.967Z,99773.00
2023-06-18T20:12:03.348Z,99772.19
2023-06-18T20:14:27.909Z,99763.66
2023-06-18T20:16:53.142Z,99767.88
2023-06-18T20:19:20.680Z,99768.50
2023-06-18T20:21:45.963Z,99768.50
2023-06-18T20:22:55.329Z,99777.23
2023-06-18T20:25:20.320Z,99769.97
2023-06-18T20:27:46.972Z,99770.80
2023-06-18T20:30:12.155Z,99770.19
2023-06-18T20:32:38.487Z,99770.41
2023-06-18T20:35:04.625Z,99777.81
2023-06-18T20:37:36.519Z,99776.15
2023-06-18T20:40:00.203Z,99767.47
2023-06-18T20:42:30.872Z,99774.89
2023-06-18T20:44:57.546Z,99778.48
2023-06-18T20:47:24.239Z,99773.20
2023-06-18T20:48:33.880Z,99776.64
2023-06-18T20:49:42.701Z,99775.78
2023-06-18T20:50:51.996Z,99770.48
2023-06-18T20:53:15.571Z,99768.74
2023-06-18T20:55:39.811Z,99772.36
2023-06-18T20:56:53.236Z,99774.94
2023-06-18T20:58:02.931Z,99771.35
2023-06-18T20:59:11.740Z,99768.82
2023-06-18T21:00:21.562Z,99770.71
2023-06-18T21:02:46.426Z,99767.08
2023-06-18T21:05:11.027Z,99767.69
2023-06-18T21:07:40.318Z,99773.80
2023-06-18T21:08:49.753Z,99775.36
2023-06-18T21:09:58.791Z,99771.13
2023-06-18T21:11:08.735Z,99774.11
2023-06-18T21:12:17.820Z,99777.27
2023-06-18T21:14:41.330Z,99771.94
2023-06-18T21:15:50.025Z,99773.02
2023-06-18T21:17:00.797Z,99767.10
2023-06-18T21:19:26.892Z,99771.05
2023-06-18T21:21:51.605Z,99768.72
2023-06-18T21:23:01.803Z,99770.66
2023-06-18T21:24:12.329Z,99781.69
2023-06-18T21:26:37.128Z,99767.24
2023-06-18T21:29:00.774Z,99770.89
2023-06-18T21:30:10.243Z,99766.06
2023-06-18T21:32:35.627Z,99777.67
2023-06-18T21:35:00.590Z,99770.27
2023-06-18T21:37:26.180Z,99767.56
2023-06-18T21:40:12.188Z,99770.55
2023-06-18T21:42:36.423Z,99772.45
2023-06-18T21:45:01.988Z,99765.47
2023-06-18T21:46:13.658Z,99766.98
2023-06-18T21:47:22.030Z,99772.27
2023-06-18T21:49:46.576Z,99774.37
2023-06-18T21:50:57.837Z,99773.56
2023-06-18T21:53:26.648Z,99768.27
2023-06-18T21:54:36.374Z,99766.79
2023-06-18T21:55:46.590Z,99765.73
2023-06-18T21:58:12.509Z,99771.22
2023-06-18T22:00:40.167Z,99777.63
2023-06-18T22:01:50.776Z,99783.56
2023-06-18T22:02:59.949Z,99767.24
2023-06-18T22:05:24.083Z,99769.59
2023-06-18T22:06:33.330Z,99775.53
2023-06-18T22:07:43.555Z,99775.09
2023-06-18T22:08:52.755Z,99775.50
2023-06-18T22:10:03.182Z,99776.14
2023-06-18T22:11:12.279Z,99773.17
2023-06-18T22:12:22.286Z,99776.58
2023-06-18T22:14:46.893Z,99769.77
2023-06-18T22:17:14.953Z,99766.83
2023-06-18T22:18:24.178Z,99780.16
2023-06-18T22:19:33.106Z,99772.13
2023-06-18T22:21:58.135Z,99768.32
2023-06-18T22:23:10.927Z,99770.43
2023-06-18T22:24:19.708Z,99772.13
2023-06-18T22:26:44.358Z,99774.22
2023-06-18T22:27:56.061Z,99775.50
2023-06-18T22:30:23.328Z,99768.92
2023-06-18T22:32:46.950Z,99766.83
2023-06-18T22:33:58.333Z,99775.50
2023-06-18T22:36:25.182Z,99760.47
2023-06-18T22:37:35.085Z,99771.47
2023-06-18T22:40:02.804Z,99762.38
2023-06-18T22:42:24.875Z,99767.66
2023-06-18T22:44:50.176Z,99771.02
2023-06-18T22:45:59.793Z,99771.69
2023-06-18T22:47:08.855Z,99771.91
2023-06-18T22:49:36.162Z,99767.02
2023-06-18T22:50:46.524Z,99776.58
2023-06-18T22:51:57.203Z,99772.13
2023-06-18T22:54:23.801Z,99772.56
2023-06-18T22:56:50.529Z,99765.98
2023-06-18T22:59:22.212Z,99771.08
2023-06-18T23:01:47.890Z,99775.53
2023-06-18T23:02:57.227Z,99778.89
2023-06-18T23:05:29.255Z,99773.61
2023-06-18T23:07:53.364Z,99771.69
2023-06-18T23:10:22.234Z,99770.02
2023-06-18T23:12:53.331Z,99767.88
2023-06-18T23:15:18.501Z,99771.48
2023-06-18T23:17:43.997Z,99772.53
2023-06-18T23:20:13.486Z,99771.05
2023-06-18T23:22:43.410Z,99766.20
2023-06-18T23:25:09.695Z,99770.41
2023-06-18T23:27:42.029Z,99763.64
2023-06-18T23:30:12.068Z,99767.24
2023-06-18T23:32:38.451Z,99772.13
2023-06-18T23:35:02.852Z,99764.27
2023-06-18T23:37:29.498Z,99762.60
2023-06-18T23:39:55.459Z,99773.38
2023-06-18T23:42:20.296Z,99771.89
2023-06-18T23:44:48.151Z,99767.44
2023-06-18T23:45:56.827Z,99769.11
2023-06-18T23:48:20.763Z,99764.08
2023-06-18T23:49:30.182Z,99766.79